USTRANSCOM 7541


KNGU
Norfolk Naval Station (Chambers Field)
Norfolk, Virginia, US
LERT
Naval Station Rota
Rota, , ES

Route Details

Aircraft Information
Primary: Boeing 757-200SF
Backup: Not Available
Route Data
Distance: 3288nm
Sched. Duration: 7h 00m
Avg. Duration: 6h 73m (-27m)
Times Flown: 2
Recm'd Route: ATLIC AR9 ZIBUT N3960 4055N N4050 N4040 4035N FRS LENSI T25 GUNTI UZ21 BUSEN A44 ESP A5 VFA W1 PIREN
Planned Altitude: 31,000ft
Origin Wx: KNGU 190659Z 28012G16KT 10SM CLR 03/M04 A3017 RMK AO2 SLP216 T00331044 $
Dest. Wx: LERT 190700Z 09007KT 6000 FEW025 06/05 Q1025 TEMPO 3000 BR
Notes: USTRANSCOM CONTRACT FLIGHT | PAYLOAD RESTRICTED | ETOPS

Financial History
Total Freight: 110,242lbs
Average Load: 55,121lbs/flt
Fuel Used: 120,296lbs
Avg. Fuel Used: 60,148lbs/flt
Fuel Expense: $114,281
Avg. Fuel Expense: $57,141
Avg. Fuel Cost: $0.95/lbs
Total Gross Income: $288,834
Pilot Pay: $378
Total Expenses: $31,298
Total Revenue: $140,034
Average Revenue: $144,417.02